createdAt,value
2017-05-15T00:07:45.093Z,1015.9
2017-05-15T00:17:55.445Z,1015.9
2017-05-15T00:28:05.898Z,1016
2017-05-15T00:38:16.220Z,1016
2017-05-15T00:48:26.694Z,1016.1
2017-05-15T00:58:37.142Z,1016.1
2017-05-15T01:08:47.628Z,1016.1
2017-05-15T01:18:58.159Z,1016.3
2017-05-15T01:29:08.696Z,1016.4
2017-05-15T01:39:19.301Z,1016.5
2017-05-15T01:49:29.874Z,1016.6
2017-05-15T01:59:40.472Z,1016.6
2017-05-15T02:09:51.070Z,1016.7
2017-05-15T02:20:01.664Z,1016.8
2017-05-15T02:30:12.191Z,1016.8
2017-05-15T02:40:22.688Z,1016.8
2017-05-15T02:50:33.175Z,1016.9
2017-05-15T03:00:43.685Z,1016.9
2017-05-15T03:10:54.171Z,1016.9
2017-05-15T03:21:04.705Z,1017
2017-05-15T03:31:15.230Z,1017.1
2017-05-15T03:41:25.684Z,1017.2
2017-05-15T03:51:36.180Z,1017.2
2017-05-15T04:01:46.611Z,1017.4
2017-05-15T04:11:56.939Z,1017.4
2017-05-15T04:22:07.156Z,1017.5
2017-05-15T04:32:17.195Z,1017.6
2017-05-15T04:42:27.113Z,1017.7
2017-05-15T04:52:36.944Z,1017.7
2017-05-15T05:02:46.687Z,1017.9
2017-05-15T05:12:56.309Z,1018
2017-05-15T05:23:05.726Z,1018
2017-05-15T05:33:15.096Z,1018.2
2017-05-15T05:43:24.298Z,1018.3
2017-05-15T05:53:33.453Z,1018.4
2017-05-15T06:03:42.539Z,1018.5
2017-05-15T06:13:51.537Z,1018.5
2017-05-15T06:24:00.365Z,1018.6
2017-05-15T06:34:09.085Z,1018.7
2017-05-15T06:44:17.681Z,1018.7
2017-05-15T06:54:26.192Z,1018.8
2017-05-15T07:04:34.652Z,1018.9
2017-05-15T07:14:43.121Z,1018.8
2017-05-15T07:24:51.485Z,1019
2017-05-15T07:34:59.825Z,1019
2017-05-15T07:45:08.059Z,1019.2
2017-05-15T07:55:16.279Z,1019
2017-05-15T08:05:24.342Z,1019.2
2017-05-15T08:15:32.394Z,1019.2
2017-05-15T08:25:40.369Z,1019.4
2017-05-15T08:35:48.287Z,1019.6
2017-05-15T08:45:56.122Z,1019.6
2017-05-15T08:56:03.956Z,1019.7
2017-05-15T09:06:11.750Z,1019.8
2017-05-15T09:16:19.521Z,1019.8
2017-05-15T09:26:27.260Z,1019.9
2017-05-15T09:36:34.878Z,1019.8
2017-05-15T09:46:42.465Z,1019.8
2017-05-15T09:56:49.972Z,1019.7
2017-05-15T10:06:57.427Z,1019.5
2017-05-15T10:17:04.934Z,1019.6
2017-05-15T10:27:12.443Z,1019.6
2017-05-15T10:37:19.673Z,1019.7
2017-05-15T10:47:26.899Z,1020
2017-05-15T10:57:34.238Z,1020
2017-05-15T11:07:41.608Z,1020
2017-05-15T11:17:49.036Z,1019.9
2017-05-15T11:27:56.572Z,1019.9
2017-05-15T11:38:03.918Z,1020
2017-05-15T11:48:11.514Z,1019.9
2017-05-15T11:58:19.070Z,1019.8
2017-05-15T12:08:26.578Z,1019.7
2017-05-15T12:18:33.990Z,1019.5
2017-05-15T12:28:41.443Z,1019.5
2017-05-15T12:38:48.849Z,1019.5
2017-05-15T12:48:56.221Z,1019.4
2017-05-15T12:59:03.522Z,1019.3
2017-05-15T13:09:10.767Z,1019.2
2017-05-15T13:19:17.965Z,1019.3
2017-05-15T13:29:25.369Z,1019.2
2017-05-15T13:39:32.715Z,1019.1
2017-05-15T13:49:40.054Z,1018.8
2017-05-15T13:59:47.498Z,1018.8
2017-05-15T14:09:54.888Z,1018.7
2017-05-15T14:20:02.171Z,1018.6
2017-05-15T14:30:09.399Z,1018.5
2017-05-15T14:40:16.523Z,1018.5
2017-05-15T14:50:23.661Z,1018.5
2017-05-15T15:00:30.878Z,1018.4
2017-05-15T15:10:38.073Z,1018.3
2017-05-15T15:20:45.539Z,1018.2
2017-05-15T15:30:53.174Z,1018.3
2017-05-15T15:41:00.644Z,1018.2
2017-05-15T15:51:07.912Z,1018.1
2017-05-15T16:01:15.104Z,1018.2
2017-05-15T16:11:22.370Z,1018.1
2017-05-15T16:21:29.687Z,1018.1
2017-05-15T16:31:36.969Z,1018.2
2017-05-15T16:41:44.288Z,1018.1
2017-05-15T16:51:51.726Z,1018.1
2017-05-15T17:01:59.311Z,1018
2017-05-15T17:12:07.176Z,1018.1
2017-05-15T17:22:15.151Z,1018.2
2017-05-15T17:32:23.198Z,1018.1
2017-05-15T17:42:31.328Z,1018.1
2017-05-15T17:52:39.695Z,1018.1
2017-05-15T18:02:48.229Z,1018.1
2017-05-15T18:12:56.904Z,1018.1
2017-05-15T18:23:05.692Z,1018.1
2017-05-15T18:33:14.566Z,1018.2
2017-05-15T18:43:23.531Z,1018.3
2017-05-15T18:53:32.551Z,1018.3
2017-05-15T19:03:41.637Z,1018.5
2017-05-15T19:13:50.813Z,1018.4
2017-05-15T19:24:00.056Z,1018.5
2017-05-15T19:34:09.352Z,1018.6
2017-05-15T19:44:18.623Z,1018.7
2017-05-15T19:54:27.930Z,1018.7
2017-05-15T20:04:37.222Z,1018.7
2017-05-15T20:14:46.551Z,1018.6
2017-05-15T20:24:55.979Z,1018.7
2017-05-15T20:35:05.303Z,1018.6
2017-05-15T20:45:14.652Z,1018.7
2017-05-15T20:55:23.999Z,1018.6
2017-05-15T21:05:33.326Z,1018.6
2017-05-15T21:15:42.634Z,1018.6
2017-05-15T21:25:51.981Z,1018.6
2017-05-15T21:36:01.377Z,1018.6
2017-05-15T21:46:10.726Z,1018.6
2017-05-15T21:56:20.121Z,1018.6
2017-05-15T22:06:29.548Z,1018.7
2017-05-15T22:16:39.031Z,1018.7
2017-05-15T22:26:48.509Z,1018.6
2017-05-15T22:36:57.995Z,1018.5
2017-05-15T22:47:07.477Z,1018.5
2017-05-15T22:57:16.928Z,1018.5
2017-05-15T23:07:26.398Z,1018.6
2017-05-15T23:17:35.882Z,1018.4
2017-05-15T23:27:45.408Z,1018.3
2017-05-15T23:37:54.947Z,1018.3
2017-05-15T23:48:04.524Z,1018.2
2017-05-15T23:58:14.143Z,1018.2
